メルボルン の空港の天気 - METARとTAF

メルボルン空港 ( YMML / MEL ) - オーストラリア ビクトリア州、Melbourne Airport
飛行場実況気象(Metar)
観測時間07/17 19:42 AEST (07/17 09:42 UTC)
風向・風速西 8m/s 瞬間風速15m/s
視程10km以上
天気現象
少しの雲 雲底高度 550m
全天の4割程度の雲 雲底高度 1220m
気温9℃
湿度71%
気圧1008hPa
METARYMML 170942Z 28015G30KT 9999 FEW018 SCT040 09/04 Q1008 FM0942 MOD/SEV TURB BLW 5000FT TILL 1030 FM1030 MOD TURB BLW 5000FT
過去の天気等 Google飛行場航空写真 Wunderground天気予報

過去48時間のMETAR

飛行場予報(TAF)
発表時間: 7/17 16:02 AEST (7/17 06:02 UTC)
予報対象時間: 17日16時 AEST ~ 18日22時 AEST
風向・風速西北西 10m/s 瞬間風速 19m/s
視程10km以上
天気現象弱いしゅう雨
少しの雲 雲底高度 610m
全天の8割程度の雲 雲底高度 910m
17日22時 AEST ~ 17日24時 AEST に徐々に
風向・風速北北西 6m/s
視程10km以上
なし
18日4時 AEST から
風向・風速北北西 8m/s 瞬間風速 14m/s
視程10km以上
なし
18日12時 AEST から
風向・風速北北西 9m/s 瞬間風速 18m/s
視程10km以上
なし
18日18時 AEST から
風向・風速北北西 8m/s 瞬間風速 13m/s
視程10km以上
少しの雲 雲底高度 910m
TAF AMD YMML 170602Z 1706/1812 29020G36KT 9999 -SHRA FEW020 BKN030
BECMG 1712/1714 33012KT CAVOK
FM171800 34016G28KT CAVOK
FM180200 34018G35KT CAVOK
FM180800 34015G25KT 9999 FEW030 INTER 1706/1709 4000 SHRA BKN015